Flight Track Log - Related Links

Times and Time Zones

All times are in EDT time to prevent confusion due to time zone crossing. See the SWA2130 flight status page for this flight to view local times or setup timezone preferences in your user account.

Time Position Orientation Groundspeed Altitude Reporting Facility
EDT Latitude Longitude Course Direction KTS MPH feet Rate Location/Type
Tue 08:55:42 PM 33.9392 -118.5611 266° West 264 304 5,000  Level Los Angeles Center
Tue 08:56:44 PM 33.8892 -118.6175 223° Southwest 268 308 5,000 1,161 Level Los Angeles Center
Tue 08:57:46 PM 33.8231 -118.5850 158° South 266 306 7,400 2,878 Climbing Los Angeles Center
Tue 08:58:47 PM 33.7519 -118.5492 157° South 277 319 10,900 3,561 Climbing Los Angeles Center
Tue 08:59:49 PM 33.6789 -118.4614 135° Southeast 337 388 14,700 3,339 Climbing Los Angeles Center
Tue 09:00:51 PM 33.6478 -118.3536 109° East 349 402 17,800 2,758 Climbing Los Angeles Center
Tue 09:01:53 PM 33.6436 -118.2289 92° East 387 445 20,400 2,683 Climbing Los Angeles Center
Tue 09:02:54 PM 33.6439 -118.0972 90° East 398 458 23,300 2,829 Climbing Los Angeles Center
Tue 09:03:56 PM 33.6444 -117.9319 90° East 416 479 26,200 2,419 Climbing Los Angeles Center
Tue 09:04:58 PM 33.6442 -117.7883 90° East 430 495 28,300 1,742 Climbing Los Angeles Center
Tue 09:06:00 PM 33.6431 -117.6378 90° East 448 516 29,800 1,610 Climbing Los Angeles Center
Tue 09:07:01 PM 33.6425 -117.4814 90° East 467 537 31,600 1,536 Climbing Los Angeles Center
Tue 09:08:05 PM 33.6408 -117.3194 91° East 483 556 33,000 1,597 Climbing Los Angeles Center
Tue 09:09:05 PM 33.6414 -117.1533 90° East 498 573 34,900 1,721 Climbing Los Angeles Center
Tue 09:10:07 PM 33.6394 -116.9897 91° East 494 568 36,500 1,561 Climbing Los Angeles Center
Tue 09:11:08 PM 33.6342 -116.8097 92° East 491 565 38,100 1,171 Climbing Los Angeles Center
Tue 09:12:10 PM 33.6089 -116.6483 101° East 493 567 38,900 919 Climbing Los Angeles Center
Tue 09:13:12 PM 33.5858 -116.4814 99° East 502 578 40,000 968 Climbing Los Angeles Center
Tue 09:14:14 PM 33.5600 -116.3167 101° East 500 575 40,900 439 Climbing Los Angeles Center
Tue 09:15:15 PM 33.5358 -116.1519 100° East 501 577 40,900  Level Los Angeles Center
Tue 09:16:17 PM 33.5053 -115.9550 100° East 499 574 40,900  Level Los Angeles Center
Tue 09:17:19 PM 33.4797 -115.7919 101° East 496 571 40,900  Level Los Angeles Center
Tue 09:18:20 PM 33.4539 -115.6275 101° East 500 575 40,900  Level Los Angeles Center
Tue 09:19:22 PM 33.4281 -115.4647 101° East 499 574 40,900  Level Los Angeles Center
Tue 09:20:24 PM 33.4022 -115.3022 101° East 497 572 40,900  Level Los Angeles Center
Tue 09:21:25 PM 33.3750 -115.1383 101° East 500 575 40,900  Level Los Angeles Center
Tue 09:22:27 PM 33.3494 -114.9747 101° East 500 575 40,900  Level Los Angeles Center
Tue 09:23:29 PM 33.3222 -114.8100 101° East 504 580 40,900  Level Los Angeles Center
Tue 09:24:30 PM 33.2908 -114.6128 101° East 503 579 40,900  Level Los Angeles Center
Tue 09:24:54 PM 33.2867 -114.5636 96° East 504 580 40,900  Level Albuquerque Center
Tue 09:25:56 PM 33.2592 -114.3986 101° East 505 581 40,900  Level Albuquerque Center
Tue 09:26:57 PM 33.2306 -114.2356 102° East 504 580 40,900  Level Albuquerque Center
Tue 09:27:58 PM 33.2022 -114.0700 102° East 507 583 40,900  Level Albuquerque Center
Tue 09:29:00 PM 33.1733 -113.9072 102° East 505 581 40,900  Level Albuquerque Center
Tue 09:30:01 PM 33.1397 -113.7114 102° East 503 579 40,900  Level Albuquerque Center
Tue 09:31:03 PM 33.1108 -113.5456 102° East 505 581 40,900  Level Albuquerque Center
Tue 09:32:04 PM 33.0822 -113.3792 102° East 508 585 40,900  Level Albuquerque Center
Tue 09:33:05 PM 33.0533 -113.2119 102° East 511 588 40,900  Level Albuquerque Center
Tue 09:34:07 PM 33.0242 -113.0458 102° East 512 589 40,900  Level Albuquerque Center
Tue 09:35:08 PM 32.9983 -112.8781 100° East 513 590 40,900  Level Albuquerque Center
Tue 09:36:10 PM 32.9797 -112.7092 97° East 512 589 40,900  Level Albuquerque Center
Tue 09:37:11 PM 32.9603 -112.5408 98° East 512 589 40,900  Level Albuquerque Center
Tue 09:38:12 PM 32.9397 -112.3733 98° East 510 587 40,900 49 Level Albuquerque Center
Tue 09:39:14 PM 32.9183 -112.1839 98° East 512 589 41,000  Climbing Albuquerque Center
Tue 09:40:15 PM 32.8972 -112.0192 99° East 508 585 40,900 -49 Descending Albuquerque Center
Tue 09:41:17 PM 32.8769 -111.8561 98° East 504 580 40,900  Level Albuquerque Center
Tue 09:42:18 PM 32.8575 -111.6936 98° East 501 577 40,900 49 Level Albuquerque Center
Tue 09:43:19 PM 32.8378 -111.5297 98° East 502 578 41,000  Climbing Albuquerque Center
Tue 09:44:21 PM 32.8164 -111.3667 99° East 503 579 40,900  Descending Albuquerque Center
Tue 09:45:22 PM 32.7917 -111.1683 98° East 507 583 41,000 49 Climbing Albuquerque Center
Tue 09:46:23 PM 32.7697 -111.0025 99° East 510 587 41,000  Level Albuquerque Center
Tue 09:47:25 PM 32.7472 -110.8350 99° East 513 590 41,000  Level Albuquerque Center
Tue 09:48:26 PM 32.7250 -110.6697 99° East 512 589 41,000  Level Albuquerque Center
Tue 09:49:27 PM 32.7022 -110.5036 99° East 512 589 41,000  Level Albuquerque Center
Tue 09:50:29 PM 32.6797 -110.3383 99° East 512 589 41,000 -49 Level Albuquerque Center
Tue 09:51:30 PM 32.6589 -110.1736 98° East 512 589 40,900 -49 Descending Albuquerque Center
Tue 09:52:32 PM 32.6356 -110.0103 100° East 510 587 40,900  Level Albuquerque Center
Tue 09:53:33 PM 32.6069 -109.8147 100° East 508 585 40,900 49 Level Albuquerque Center
Tue 09:54:34 PM 32.5822 -109.6500 100° East 514 592 41,000 49 Climbing Albuquerque Center
Tue 09:55:35 PM 32.5594 -109.4878 99° East 510 587 41,000 -49 Level Albuquerque Center
Tue 09:56:37 PM 32.5367 -109.3294 100° East 503 579 40,900  Descending Albuquerque Center
Tue 09:57:38 PM 32.5133 -109.1669 100° East 504 580 41,000 49 Climbing Albuquerque Center
Tue 09:58:39 PM 32.4850 -108.9747 100° East 504 580 41,000 -195 Level Albuquerque Center
Tue 09:59:41 PM 32.4606 -108.8139 100° East 504 580 40,600 -1,463 Descending Albuquerque Center
Tue 10:00:42 PM 32.4375 -108.6525 100° East 504 580 38,000 -2,705 Descending Albuquerque Center
Tue 10:01:43 PM 32.4122 -108.4911 100° East 506 582 35,100 -2,683 Descending Albuquerque Center
Tue 10:02:45 PM 32.3847 -108.3128 100° East 513 590 32,500 -1,707 Descending Albuquerque Center
Tue 10:03:46 PM 32.3603 -108.1447 100° East 518 596 31,600 -984 Descending Albuquerque Center
Tue 10:04:47 PM 32.3339 -107.9800 101° East 515 593 30,500 -1,220 Descending Albuquerque Center
Tue 10:05:49 PM 32.3081 -107.8206 101° East 502 578 29,100 -1,805 Descending Albuquerque Center
Tue 10:06:50 PM 32.2842 -107.6658 100° East 489 563 26,800 -2,459 Descending Albuquerque Center
Tue 10:07:51 PM 32.2508 -107.4961 103° East 468 539 24,100 -2,390 Descending Albuquerque Center
Tue 10:08:53 PM 32.2167 -107.3656 107° East 454 522 21,900 -2,098 Descending Albuquerque Center
Tue 10:09:54 PM 32.1839 -107.2294 106° East 440 506 19,800 -2,293 Descending Albuquerque Center
Tue 10:10:56 PM 32.1519 -107.0828 104° East 429 494 17,200 -2,478 Descending Albuquerque Center
Tue 10:11:26 PM 32.1347 -107.0117 106° East 410 472 16,000 -2,066 Descending Albuquerque Center
Tue 10:11:57 PM 32.1228 -106.9586 105° East 414 476 15,100 -2,125 Descending Albuquerque Center
Tue 10:12:14 PM 32.1081 -106.9081 109° East 389 448 14,300 -2,066 Descending Albuquerque Center
Tue 10:12:58 PM 32.0931 -106.8372 104° East 395 455 13,000 -2,164 Descending Albuquerque Center
Tue 10:13:15 PM 32.0786 -106.7900 110° East 374 430 12,100 -2,197 Descending Albuquerque Center
Tue 10:14:09 PM 32.0533 -106.6836 106° East 362 417 10,400 -1,114 Descending Albuquerque Center
Tue 10:15:00 PM 31.9305 -106.6532 168° South  Level FlightAware Approximate
Tue 10:16:02 PM 32.0081 -106.4975 168° South 310 357 9,000  Level Albuquerque Center
Tue 10:17:03 PM 31.9714 -106.4189 119° Southeast 274 315 8,300 -1,024 Descending Albuquerque Center
Tue 10:18:05 PM 31.9356 -106.3453 120° Southeast 260 299 6,900 -1,317 Descending Albuquerque Center
Tue 10:19:06 PM 31.8858 -106.3014 143° Southeast 224 258 5,600 -1,082 Descending Albuquerque Center
Tue 10:20:07 PM 31.8497 -106.3303 214° Southwest 152 175 4,700 -780 Descending Albuquerque Center
Tue 10:21:09 PM 31.8231 -106.3686 231° Southwest 141 162 4,000 -677 Descending Albuquerque Center
Tue 10:23:00 PM 31.8000 -106.3667 169° South  Level FlightAware Approximate
Tue 10:30:00 PM 31.8072 -106.3764 169° South  Level Estimated
Tue 10:31:00 PM 31.8072 -106.3764 169° South  Level Estimated
Tue 10:32:00 PM 31.8072 -106.3764 169° South  Level Estimated
Tue 10:33:00 PM 31.8072 -106.3764 169° South  Level Estimated

Login

Don't have an account? Register now (free) for customized features, flight alerts, and more!